createdAt,value
2019-03-23T00:00:20.455Z,959
2019-03-23T00:03:26.405Z,959
2019-03-23T00:06:32.363Z,958.9
2019-03-23T00:09:38.248Z,959
2019-03-23T00:12:44.183Z,958.9
2019-03-23T00:15:50.250Z,958.8
2019-03-23T00:18:56.201Z,958.8
2019-03-23T00:22:02.171Z,958.7
2019-03-23T00:25:08.118Z,958.7
2019-03-23T00:28:14.081Z,958.6
2019-03-23T00:31:19.992Z,958.6
2019-03-23T00:34:25.956Z,958.7
2019-03-23T00:37:31.963Z,958.6
2019-03-23T00:40:37.847Z,958.6
2019-03-23T00:43:43.882Z,958.5
2019-03-23T00:46:49.855Z,958.5
2019-03-23T00:49:58.707Z,958.5
2019-03-23T00:53:04.627Z,958.4
2019-03-23T00:56:10.504Z,958.4
2019-03-23T00:59:18.905Z,958.4
2019-03-23T01:02:24.775Z,958.4
2019-03-23T01:05:30.723Z,958.4
2019-03-23T01:08:36.630Z,958.3
2019-03-23T01:11:42.675Z,958.4
2019-03-23T01:14:48.638Z,958.3
2019-03-23T01:17:54.475Z,958.2
2019-03-23T01:21:00.520Z,958.2
2019-03-23T01:24:06.404Z,958.3
2019-03-23T01:27:12.339Z,958.2
2019-03-23T01:30:29.409Z,958.2
2019-03-23T01:33:35.317Z,958.2
2019-03-23T01:36:41.275Z,958.2
2019-03-23T01:39:47.150Z,958.2
2019-03-23T01:42:53.156Z,958.1
2019-03-23T01:45:59.165Z,958.1
2019-03-23T01:49:05.122Z,958
2019-03-23T01:52:11.024Z,957.9
2019-03-23T01:55:17.042Z,957.9
2019-03-23T01:58:23.107Z,957.8
2019-03-23T02:01:29.065Z,957.7
2019-03-23T02:04:34.967Z,957.8
2019-03-23T02:07:40.988Z,957.7
2019-03-23T02:10:46.949Z,957.7
2019-03-23T02:13:55.778Z,957.7
2019-03-23T02:17:01.838Z,957.7
2019-03-23T02:20:07.808Z,957.7
2019-03-23T02:23:13.864Z,957.7
2019-03-23T02:26:19.752Z,957.7
2019-03-23T02:29:25.826Z,957.8
2019-03-23T02:32:31.942Z,957.8
2019-03-23T02:35:37.902Z,957.8
2019-03-23T02:38:46.551Z,957.9
2019-03-23T02:41:52.549Z,957.9
2019-03-23T02:44:58.579Z,957.9
2019-03-23T02:48:07.544Z,958
2019-03-23T02:51:13.418Z,957.9
2019-03-23T02:54:19.496Z,957.9
2019-03-23T02:57:25.624Z,957.9
2019-03-23T03:00:31.487Z,957.8
2019-03-23T03:03:37.498Z,957.8
2019-03-23T03:06:43.359Z,957.9
2019-03-23T03:09:49.306Z,957.9
2019-03-23T03:12:55.251Z,958
2019-03-23T03:16:01.135Z,958
2019-03-23T03:19:07.174Z,958
2019-03-23T03:22:13.056Z,958
2019-03-23T03:25:18.991Z,958
2019-03-23T03:28:24.956Z,958.1
2019-03-23T03:31:30.977Z,958.1
2019-03-23T03:34:37.024Z,958.1
2019-03-23T03:37:57.936Z,958.2
2019-03-23T03:41:03.946Z,958.1
2019-03-23T03:44:10.116Z,958.2
2019-03-23T03:47:16.024Z,958.2
2019-03-23T03:50:22.091Z,958.3
2019-03-23T03:53:28.014Z,958.2
2019-03-23T03:56:33.956Z,958.2
2019-03-23T03:59:39.980Z,958.2
2019-03-23T04:02:46.044Z,958.2
2019-03-23T04:05:51.984Z,958.2
2019-03-23T04:08:57.896Z,958.2
2019-03-23T04:12:03.878Z,958.2
2019-03-23T04:15:10.019Z,958.2
2019-03-23T04:18:15.983Z,958.2
2019-03-23T04:21:21.937Z,958.2
2019-03-23T04:24:27.810Z,958.1
2019-03-23T04:27:33.859Z,958.2
2019-03-23T04:30:39.733Z,958.2
2019-03-23T04:33:45.725Z,958.2
2019-03-23T04:36:51.598Z,958.3
2019-03-23T04:39:57.632Z,958.2
2019-03-23T04:43:03.567Z,958.2
2019-03-23T04:46:09.520Z,958.2
2019-03-23T04:49:15.393Z,958.2
2019-03-23T04:52:21.339Z,958.2
2019-03-23T04:55:27.303Z,958.2
2019-03-23T04:58:33.283Z,958.3
2019-03-23T05:01:39.137Z,958.3
2019-03-23T05:04:45.076Z,958.1
2019-03-23T05:07:50.952Z,958.1
2019-03-23T05:10:56.993Z,958.2
2019-03-23T05:14:05.542Z,958.3
2019-03-23T05:17:11.477Z,958.3
2019-03-23T05:20:17.356Z,958.4
2019-03-23T05:23:23.294Z,958.4
2019-03-23T05:26:29.260Z,958.4
2019-03-23T05:29:35.210Z,958.5
2019-03-23T05:32:41.273Z,958.6
2019-03-23T05:35:47.155Z,958.5
2019-03-23T05:38:53.190Z,958.5
2019-03-23T05:41:59.071Z,958.5
2019-03-23T05:45:05.008Z,958.5
2019-03-23T05:48:10.968Z,958.6
2019-03-23T05:51:16.907Z,958.6
2019-03-23T05:54:22.950Z,958.6
2019-03-23T05:57:29.055Z,958.6
2019-03-23T06:00:34.990Z,958.6
2019-03-23T06:03:40.972Z,958.6
2019-03-23T06:06:46.930Z,958.5
2019-03-23T06:09:52.804Z,958.5
2019-03-23T06:12:58.757Z,958.5
2019-03-23T06:16:04.662Z,958.4
2019-03-23T06:19:10.638Z,958.4
2019-03-23T06:22:16.629Z,958.4
2019-03-23T06:25:22.503Z,958.4
2019-03-23T06:28:28.551Z,958.3
2019-03-23T06:31:34.510Z,958.3
2019-03-23T06:34:40.382Z,958.3
2019-03-23T06:37:46.330Z,958.2
2019-03-23T06:40:52.285Z,958.1
2019-03-23T06:43:58.256Z,958.1
2019-03-23T06:47:04.208Z,958.1
2019-03-23T06:50:10.374Z,958.1
2019-03-23T06:53:16.445Z,958.1
2019-03-23T06:56:22.428Z,958.2
2019-03-23T06:59:28.466Z,958.3
2019-03-23T07:02:34.331Z,958.3
2019-03-23T07:05:40.283Z,958.3
2019-03-23T07:08:46.241Z,958.2
2019-03-23T07:11:52.121Z,958.2
2019-03-23T07:14:58.165Z,958.1
2019-03-23T07:18:04.043Z,958.1
2019-03-23T07:21:09.984Z,958.1
2019-03-23T07:24:16.009Z,958
2019-03-23T07:27:21.999Z,958
2019-03-23T07:30:27.959Z,958
2019-03-23T07:33:33.839Z,958.1
2019-03-23T07:36:39.874Z,958
2019-03-23T07:39:45.832Z,958
2019-03-23T07:42:51.793Z,958
2019-03-23T07:45:57.755Z,958
2019-03-23T07:49:03.716Z,957.9
2019-03-23T07:52:09.673Z,957.9
2019-03-23T07:55:15.640Z,957.8
2019-03-23T07:58:21.650Z,957.7
2019-03-23T08:01:27.523Z,957.8
2019-03-23T08:04:33.514Z,957.8
2019-03-23T08:07:39.473Z,957.9
2019-03-23T08:10:45.433Z,957.8
2019-03-23T08:13:51.497Z,957.8
2019-03-23T08:17:00.149Z,957.8
2019-03-23T08:20:06.111Z,957.7
2019-03-23T08:23:12.043Z,957.6
2019-03-23T08:26:18.103Z,957.6
2019-03-23T08:29:24.094Z,957.6
2019-03-23T08:32:30.027Z,957.6
2019-03-23T08:35:35.984Z,957.5
2019-03-23T08:38:41.945Z,957.4
2019-03-23T08:41:47.827Z,957.4
2019-03-23T08:44:53.864Z,957.5
2019-03-23T08:47:59.801Z,957.4
2019-03-23T08:51:05.892Z,957.4
2019-03-23T08:54:11.854Z,957.3
2019-03-23T08:57:17.830Z,957.3
2019-03-23T09:00:23.873Z,957.2
2019-03-23T09:03:29.863Z,957.2
2019-03-23T09:06:35.793Z,957.1
2019-03-23T09:09:44.522Z,957
2019-03-23T09:13:01.435Z,957
2019-03-23T09:16:07.301Z,957.1
2019-03-23T09:19:13.250Z,957
2019-03-23T09:22:19.212Z,957
2019-03-23T09:25:25.089Z,957
2019-03-23T09:28:31.041Z,957
2019-03-23T09:31:36.987Z,957
2019-03-23T09:34:42.858Z,957
2019-03-23T09:37:48.810Z,957
2019-03-23T09:40:54.691Z,956.8
2019-03-23T09:44:00.629Z,956.9
2019-03-23T09:47:06.536Z,956.9
2019-03-23T09:50:12.447Z,956.8
2019-03-23T09:53:20.864Z,956.8
2019-03-23T09:56:26.758Z,956.7
2019-03-23T09:59:32.671Z,956.7
2019-03-23T10:02:38.584Z,956.7
2019-03-23T10:05:44.488Z,956.7
2019-03-23T10:08:50.407Z,956.7
2019-03-23T10:11:56.418Z,956.6
2019-03-23T10:15:04.703Z,956.6
2019-03-23T10:18:10.735Z,956.6
2019-03-23T10:21:16.654Z,956.6
2019-03-23T10:24:22.605Z,956.5
2019-03-23T10:27:28.575Z,956.5
2019-03-23T10:30:34.533Z,956.5
2019-03-23T10:33:40.639Z,956.5
2019-03-23T10:36:46.582Z,956.4
2019-03-23T10:39:52.518Z,956.4
2019-03-23T10:42:58.581Z,956.4
2019-03-23T10:46:04.540Z,956.3
2019-03-23T10:49:10.502Z,956.3
2019-03-23T10:52:16.419Z,956.2
2019-03-23T10:55:22.421Z,956.1
2019-03-23T10:58:28.380Z,956.1
2019-03-23T11:01:34.335Z,956
2019-03-23T11:04:40.407Z,955.9
2019-03-23T11:07:46.270Z,955.9
2019-03-23T11:10:52.212Z,955.9
2019-03-23T11:13:58.274Z,955.8
2019-03-23T11:17:04.235Z,955.8
2019-03-23T11:20:10.109Z,955.7
2019-03-23T11:23:16.096Z,955.8
2019-03-23T11:26:22.044Z,955.7
2019-03-23T11:29:29.864Z,955.7
2019-03-23T11:32:35.923Z,955.6
2019-03-23T11:35:41.843Z,955.6
2019-03-23T11:38:47.803Z,955.5
2019-03-23T11:41:53.697Z,955.5
2019-03-23T11:44:59.925Z,955.5
2019-03-23T11:48:06.091Z,955.4
2019-03-23T11:51:12.150Z,955.4
2019-03-23T11:54:18.125Z,955.3
2019-03-23T11:57:24.180Z,955.2
2019-03-23T12:00:30.241Z,955.3
2019-03-23T12:03:36.117Z,955.2
2019-03-23T12:06:42.054Z,955.1
2019-03-23T12:09:48.029Z,955.1
2019-03-23T12:12:53.989Z,955
2019-03-23T12:16:00.072Z,955
2019-03-23T12:19:06.032Z,954.9
2019-03-23T12:22:12.208Z,954.8
2019-03-23T12:25:18.352Z,954.8
2019-03-23T12:28:24.295Z,954.8
2019-03-23T12:31:32.902Z,954.8
2019-03-23T12:34:38.874Z,954.8
2019-03-23T12:37:44.828Z,954.7
2019-03-23T12:40:50.712Z,954.7
2019-03-23T12:43:56.699Z,954.7
2019-03-23T12:47:02.615Z,954.6
2019-03-23T12:50:08.578Z,954.6
2019-03-23T12:53:14.531Z,954.5
2019-03-23T12:56:21.306Z,954.5
2019-03-23T12:59:27.199Z,954.4
2019-03-23T13:02:33.234Z,954.4
2019-03-23T13:05:39.127Z,954.4
2019-03-23T13:08:45.052Z,954.3
2019-03-23T13:11:51.158Z,954.4
2019-03-23T13:14:57.033Z,954.3
2019-03-23T13:18:04.259Z,954.2
2019-03-23T13:21:10.202Z,954.2
2019-03-23T13:24:16.175Z,954.2
2019-03-23T13:30:27.215Z,954.1
2019-03-23T13:33:33.138Z,954
2019-03-23T13:36:39.126Z,954
2019-03-23T13:39:45.081Z,954
2019-03-23T13:42:50.955Z,954
2019-03-23T13:45:56.872Z,954
2019-03-23T13:49:02.761Z,953.9
2019-03-23T13:52:08.731Z,953.7
2019-03-23T13:55:17.415Z,953.8
2019-03-23T13:58:23.521Z,953.8
2019-03-23T14:01:29.611Z,953.7
2019-03-23T14:04:35.644Z,953.6
2019-03-23T14:07:41.560Z,953.6
2019-03-23T14:10:47.535Z,953.7
2019-03-23T14:13:53.596Z,953.7
2019-03-23T14:16:59.486Z,953.7
2019-03-23T14:20:05.416Z,953.5
2019-03-23T14:23:11.423Z,953.6
2019-03-23T14:26:17.431Z,953.6
2019-03-23T14:29:23.317Z,953.5
2019-03-23T14:32:29.253Z,953.5
2019-03-23T14:35:35.212Z,953.5
2019-03-23T14:38:41.101Z,953.5
2019-03-23T14:41:47.070Z,953.4
2019-03-23T14:44:52.960Z,953.4
2019-03-23T14:48:01.706Z,953.5
2019-03-23T14:51:07.790Z,953.5
2019-03-23T14:54:16.329Z,953.5
2019-03-23T14:57:22.254Z,953.4
2019-03-23T15:00:28.214Z,953.5
2019-03-23T15:03:34.155Z,953.4
2019-03-23T15:06:40.135Z,953.5
2019-03-23T15:09:46.028Z,953.5
2019-03-23T15:12:52.064Z,953.4
2019-03-23T15:15:58.012Z,953.5
2019-03-23T15:19:03.974Z,953.4
2019-03-23T15:22:09.861Z,953.5
2019-03-23T15:25:15.794Z,953.5
2019-03-23T15:28:21.780Z,953.5
2019-03-23T15:31:27.646Z,953.5
2019-03-23T15:34:36.551Z,953.5
2019-03-23T15:37:42.435Z,953.5
2019-03-23T15:40:48.486Z,953.5
2019-03-23T15:43:54.452Z,953.5
2019-03-23T15:47:00.490Z,953.6
2019-03-23T15:50:06.369Z,953.5
2019-03-23T15:53:12.408Z,953.6
2019-03-23T15:56:18.361Z,953.6
2019-03-23T15:59:24.250Z,953.6
2019-03-23T16:02:30.185Z,953.7
2019-03-23T16:05:36.070Z,953.7
2019-03-23T16:08:41.995Z,953.7
2019-03-23T16:11:48.066Z,953.6
2019-03-23T16:14:54.028Z,953.6
2019-03-23T16:18:02.179Z,953.6
2019-03-23T16:21:08.223Z,953.7
2019-03-23T16:24:14.082Z,953.7
2019-03-23T16:27:20.007Z,953.8
2019-03-23T16:30:26.016Z,953.7
2019-03-23T16:33:31.925Z,953.8
2019-03-23T16:36:37.999Z,953.8
2019-03-23T16:39:43.950Z,953.9
2019-03-23T16:42:50.012Z,953.8
2019-03-23T16:45:56.005Z,953.9
2019-03-23T16:49:01.931Z,953.9
2019-03-23T16:52:10.453Z,954
2019-03-23T16:55:16.332Z,954
2019-03-23T16:58:22.266Z,954.1
2019-03-23T17:01:28.151Z,954.1
2019-03-23T17:04:34.093Z,954.1
2019-03-23T17:07:40.046Z,954.1
2019-03-23T17:10:46.004Z,954.1
2019-03-23T17:13:51.888Z,954.2
2019-03-23T17:17:00.194Z,954.2
2019-03-23T17:20:06.344Z,954.3
2019-03-23T17:23:12.223Z,954.3
2019-03-23T17:26:18.158Z,954.3
2019-03-23T17:29:24.122Z,954.3
2019-03-23T17:32:30.080Z,954.3
2019-03-23T17:35:35.963Z,954.3
2019-03-23T17:38:41.897Z,954.3
2019-03-23T17:41:50.958Z,954.4
2019-03-23T17:44:56.771Z,954.4
2019-03-23T17:48:02.753Z,954.5
2019-03-23T17:51:08.713Z,954.5
2019-03-23T17:54:14.670Z,954.5
2019-03-23T17:57:20.639Z,954.5
2019-03-23T18:00:28.540Z,954.6
2019-03-23T18:03:34.470Z,954.6
2019-03-23T18:06:40.458Z,954.6
2019-03-23T18:09:46.341Z,954.6
2019-03-23T18:12:52.276Z,954.6
2019-03-23T18:15:58.231Z,954.6
2019-03-23T18:19:04.113Z,954.6
2019-03-23T18:22:10.257Z,954.6
2019-03-23T18:25:16.224Z,954.6
2019-03-23T18:28:22.198Z,954.6
2019-03-23T18:31:28.141Z,954.6
2019-03-23T18:34:34.197Z,954.6
2019-03-23T18:37:40.080Z,954.6
2019-03-23T18:40:46.021Z,954.6
2019-03-23T18:43:52.083Z,954.7
2019-03-23T18:46:57.967Z,954.7
2019-03-23T18:50:03.900Z,954.7
2019-03-23T18:53:09.887Z,954.7
2019-03-23T18:56:15.839Z,954.7
2019-03-23T18:59:21.826Z,954.7
2019-03-23T19:02:30.200Z,954.6
2019-03-23T19:05:36.075Z,954.6
2019-03-23T19:08:42.018Z,954.6
2019-03-23T19:11:47.957Z,954.6
2019-03-23T19:14:56.593Z,954.7
2019-03-23T19:18:02.905Z,954.7
2019-03-23T19:21:08.825Z,954.8
2019-03-23T19:24:14.785Z,954.8
2019-03-23T19:27:20.743Z,954.8
2019-03-23T19:30:26.703Z,954.8
2019-03-23T19:33:32.765Z,954.8
2019-03-23T19:36:38.724Z,954.9
2019-03-23T19:39:44.789Z,954.9
2019-03-23T19:42:50.750Z,954.9
2019-03-23T19:45:56.705Z,954.9
2019-03-23T19:49:02.667Z,955
2019-03-23T19:52:08.728Z,955
2019-03-23T19:55:14.688Z,955
2019-03-23T19:58:20.659Z,955
2019-03-23T20:01:26.536Z,955
2019-03-23T20:04:32.724Z,955
2019-03-23T20:07:38.833Z,955
2019-03-23T20:10:44.794Z,955
2019-03-23T20:13:59.822Z,955
2019-03-23T20:17:05.728Z,955
2019-03-23T20:20:11.606Z,955
2019-03-23T20:23:17.545Z,955
2019-03-23T20:26:23.422Z,955
2019-03-23T20:29:31.920Z,955
2019-03-23T20:32:37.884Z,955
2019-03-23T20:35:43.843Z,955
2019-03-23T20:38:49.902Z,955
2019-03-23T20:41:55.791Z,955.1
2019-03-23T20:45:01.727Z,955.1
2019-03-23T20:48:07.685Z,955.1
2019-03-23T20:51:13.569Z,955.1
2019-03-23T20:54:19.667Z,955.2
2019-03-23T20:57:25.661Z,955.1
2019-03-23T21:00:42.685Z,955.2
2019-03-23T21:03:48.646Z,955.3
2019-03-23T21:06:54.663Z,955.2
2019-03-23T21:10:00.930Z,955.3
2019-03-23T21:13:06.828Z,955.2
2019-03-23T21:16:12.890Z,955.3
2019-03-23T21:19:18.854Z,955.3
2019-03-23T21:22:24.813Z,955.3
2019-03-23T21:25:30.774Z,955.3
2019-03-23T21:28:36.735Z,955.4
2019-03-23T21:31:42.796Z,955.3
2019-03-23T21:34:48.753Z,955.3
2019-03-23T21:37:54.815Z,955.3
2019-03-23T21:41:00.775Z,955.3
2019-03-23T21:44:06.827Z,955.4
2019-03-23T21:47:12.792Z,955.3
2019-03-23T21:50:18.683Z,955.4
2019-03-23T21:53:24.717Z,955.3
2019-03-23T21:56:30.784Z,955.3
2019-03-23T21:59:36.742Z,955.3
2019-03-23T22:02:42.872Z,955.3
2019-03-23T22:05:48.889Z,955.5
2019-03-23T22:08:54.856Z,955.5
2019-03-23T22:12:00.888Z,955.7
2019-03-23T22:15:06.849Z,955.7
2019-03-23T22:18:12.768Z,955.8
2019-03-23T22:21:18.798Z,955.7
2019-03-23T22:24:27.081Z,955.7
2019-03-23T22:27:33.108Z,955.8
2019-03-23T22:30:38.979Z,955.9
2019-03-23T22:33:44.964Z,955.8
2019-03-23T22:36:50.836Z,955.8
2019-03-23T22:39:56.783Z,955.8
2019-03-23T22:43:02.689Z,955.8
2019-03-23T22:46:08.623Z,955.9
2019-03-23T22:49:14.470Z,955.8
2019-03-23T22:52:20.520Z,955.9
2019-03-23T22:55:26.477Z,955.9
2019-03-23T22:58:32.352Z,956
2019-03-23T23:01:41.378Z,956
2019-03-23T23:04:47.254Z,956
2019-03-23T23:07:53.131Z,956.1
2019-03-23T23:10:59.160Z,956.1
2019-03-23T23:14:05.019Z,956.1
2019-03-23T23:17:10.962Z,956.2
2019-03-23T23:20:16.923Z,956.2
2019-03-23T23:23:23.050Z,956.1
2019-03-23T23:26:28.913Z,956.1
2019-03-23T23:29:34.832Z,956.1
2019-03-23T23:32:40.702Z,956
2019-03-23T23:35:46.744Z,956
2019-03-23T23:38:53.759Z,956.1
2019-03-23T23:41:59.782Z,956.1
2019-03-23T23:45:16.647Z,956.1
2019-03-23T23:48:22.700Z,956
2019-03-23T23:51:28.718Z,955.9
2019-03-23T23:54:34.669Z,955.9
2019-03-23T23:57:40.628Z,955.9
